sensor_id;sensor_type;location;lat;lon;timestamp;P1;durP1;ratioP1;P2;durP2;ratioP2
10174;SDS011;18221;38.704;0.152;2023-08-06T00:13:25;6.33;;;2.10;;
10174;SDS011;18221;38.704;0.152;2023-08-06T00:15:54;7.53;;;2.00;;
10174;SDS011;18221;38.704;0.152;2023-08-06T00:18:22;4.23;;;1.67;;
10174;SDS011;18221;38.704;0.152;2023-08-06T00:20:50;2.93;;;1.47;;
10174;SDS011;18221;38.704;0.152;2023-08-06T00:23:20;2.57;;;1.70;;
10174;SDS011;18221;38.704;0.152;2023-08-06T00:25:48;3.67;;;1.70;;
10174;SDS011;18221;38.704;0.152;2023-08-06T00:28:16;7.43;;;1.80;;
10174;SDS011;18221;38.704;0.152;2023-08-06T00:30:46;6.20;;;1.87;;
10174;SDS011;18221;38.704;0.152;2023-08-06T00:33:20;5.53;;;1.90;;
10174;SDS011;18221;38.704;0.152;2023-08-06T00:35:49;2.40;;;1.70;;
10174;SDS011;18221;38.704;0.152;2023-08-06T00:38:17;2.43;;;1.60;;
10174;SDS011;18221;38.704;0.152;2023-08-06T00:40:46;4.37;;;1.90;;
10174;SDS011;18221;38.704;0.152;2023-08-06T00:43:14;4.13;;;1.80;;
10174;SDS011;18221;38.704;0.152;2023-08-06T00:45:42;4.53;;;1.70;;
10174;SDS011;18221;38.704;0.152;2023-08-06T00:48:12;8.10;;;1.93;;
10174;SDS011;18221;38.704;0.152;2023-08-06T00:50:41;4.50;;;1.97;;
10174;SDS011;18221;38.704;0.152;2023-08-06T00:53:12;5.73;;;2.20;;
10174;SDS011;18221;38.704;0.152;2023-08-06T00:55:41;4.50;;;2.07;;
10174;SDS011;18221;38.704;0.152;2023-08-06T00:58:11;5.00;;;1.93;;
10174;SDS011;18221;38.704;0.152;2023-08-06T01:00:42;4.80;;;2.00;;
10174;SDS011;18221;38.704;0.152;2023-08-06T01:03:12;4.23;;;1.97;;
10174;SDS011;18221;38.704;0.152;2023-08-06T01:05:41;3.67;;;2.10;;
10174;SDS011;18221;38.704;0.152;2023-08-06T01:08:14;4.63;;;2.30;;
10174;SDS011;18221;38.704;0.152;2023-08-06T01:11:03;5.57;;;1.90;;
10174;SDS011;18221;38.704;0.152;2023-08-06T01:13:47;10.57;;;2.30;;
10174;SDS011;18221;38.704;0.152;2023-08-06T01:16:20;5.07;;;2.00;;
10174;SDS011;18221;38.704;0.152;2023-08-06T01:18:52;6.03;;;2.03;;
10174;SDS011;18221;38.704;0.152;2023-08-06T01:21:22;4.00;;;1.90;;
10174;SDS011;18221;38.704;0.152;2023-08-06T01:23:50;6.30;;;2.40;;
10174;SDS011;18221;38.704;0.152;2023-08-06T01:26:20;4.97;;;2.00;;
10174;SDS011;18221;38.704;0.152;2023-08-06T01:28:59;3.97;;;2.20;;
10174;SDS011;18221;38.704;0.152;2023-08-06T01:31:35;4.30;;;2.00;;
10174;SDS011;18221;38.704;0.152;2023-08-06T01:34:07;4.20;;;1.83;;
10174;SDS011;18221;38.704;0.152;2023-08-06T01:36:45;3.00;;;1.80;;
10174;SDS011;18221;38.704;0.152;2023-08-06T01:39:15;5.57;;;2.00;;
10174;SDS011;18221;38.704;0.152;2023-08-06T01:41:46;6.53;;;2.03;;
10174;SDS011;18221;38.704;0.152;2023-08-06T01:44:14;8.60;;;2.60;;
10174;SDS011;18221;38.704;0.152;2023-08-06T01:46:43;6.13;;;2.20;;
10174;SDS011;18221;38.704;0.152;2023-08-06T01:49:11;8.20;;;2.57;;
10174;SDS011;18221;38.704;0.152;2023-08-06T01:51:39;7.43;;;2.33;;
10174;SDS011;18221;38.704;0.152;2023-08-06T01:54:09;7.80;;;2.30;;
10174;SDS011;18221;38.704;0.152;2023-08-06T01:56:37;6.47;;;2.03;;
10174;SDS011;18221;38.704;0.152;2023-08-06T01:59:05;3.67;;;2.37;;
10174;SDS011;18221;38.704;0.152;2023-08-06T02:01:33;7.63;;;2.10;;
10174;SDS011;18221;38.704;0.152;2023-08-06T02:04:02;6.67;;;1.77;;
10174;SDS011;18221;38.704;0.152;2023-08-06T02:06:30;5.67;;;2.00;;
10174;SDS011;18221;38.704;0.152;2023-08-06T02:08:58;7.33;;;2.13;;
10174;SDS011;18221;38.704;0.152;2023-08-06T02:11:27;5.27;;;2.33;;
10174;SDS011;18221;38.704;0.152;2023-08-06T02:13:55;4.30;;;2.10;;
10174;SDS011;18221;38.704;0.152;2023-08-06T02:16:24;5.13;;;2.10;;
10174;SDS011;18221;38.704;0.152;2023-08-06T02:18:52;5.37;;;2.00;;
10174;SDS011;18221;38.704;0.152;2023-08-06T02:21:20;6.37;;;2.10;;
10174;SDS011;18221;38.704;0.152;2023-08-06T02:23:48;3.10;;;1.83;;
10174;SDS011;18221;38.704;0.152;2023-08-06T02:26:16;3.77;;;2.07;;
10174;SDS011;18221;38.704;0.152;2023-08-06T02:28:45;3.03;;;1.73;;
10174;SDS011;18221;38.704;0.152;2023-08-06T02:31:13;3.20;;;1.63;;
10174;SDS011;18221;38.704;0.152;2023-08-06T02:33:42;5.70;;;1.70;;
10174;SDS011;18221;38.704;0.152;2023-08-06T02:36:10;5.60;;;2.07;;
10174;SDS011;18221;38.704;0.152;2023-08-06T02:38:38;2.90;;;1.70;;
10174;SDS011;18221;38.704;0.152;2023-08-06T02:41:06;4.77;;;2.00;;
10174;SDS011;18221;38.704;0.152;2023-08-06T02:43:34;5.07;;;2.73;;
10174;SDS011;18221;38.704;0.152;2023-08-06T02:46:04;4.47;;;2.10;;
10174;SDS011;18221;38.704;0.152;2023-08-06T02:48:32;6.90;;;2.07;;
10174;SDS011;18221;38.704;0.152;2023-08-06T02:51:00;4.60;;;2.13;;
10174;SDS011;18221;38.704;0.152;2023-08-06T02:53:28;3.83;;;1.50;;
10174;SDS011;18221;38.704;0.152;2023-08-06T02:55:57;3.30;;;1.80;;
10174;SDS011;18221;38.704;0.152;2023-08-06T02:58:26;3.87;;;1.60;;
10174;SDS011;18221;38.704;0.152;2023-08-06T03:01:00;3.23;;;1.80;;
10174;SDS011;18221;38.704;0.152;2023-08-06T03:03:32;3.40;;;1.70;;
10174;SDS011;18221;38.704;0.152;2023-08-06T03:06:01;2.57;;;1.80;;
10174;SDS011;18221;38.704;0.152;2023-08-06T03:08:29;4.70;;;2.00;;
10174;SDS011;18221;38.704;0.152;2023-08-06T03:10:57;2.47;;;1.70;;
10174;SDS011;18221;38.704;0.152;2023-08-06T03:13:26;4.60;;;1.70;;
10174;SDS011;18221;38.704;0.152;2023-08-06T03:15:54;3.50;;;1.60;;
10174;SDS011;18221;38.704;0.152;2023-08-06T03:18:27;3.60;;;1.70;;
10174;SDS011;18221;38.704;0.152;2023-08-06T03:20:55;4.43;;;1.83;;
10174;SDS011;18221;38.704;0.152;2023-08-06T03:23:23;2.53;;;1.50;;
10174;SDS011;18221;38.704;0.152;2023-08-06T03:25:51;4.57;;;1.90;;
10174;SDS011;18221;38.704;0.152;2023-08-06T03:28:19;4.20;;;1.90;;
10174;SDS011;18221;38.704;0.152;2023-08-06T03:30:48;3.30;;;1.73;;
10174;SDS011;18221;38.704;0.152;2023-08-06T03:33:27;3.90;;;1.87;;
10174;SDS011;18221;38.704;0.152;2023-08-06T03:35:56;4.20;;;1.80;;
10174;SDS011;18221;38.704;0.152;2023-08-06T03:38:24;4.87;;;1.80;;
10174;SDS011;18221;38.704;0.152;2023-08-06T03:40:53;3.60;;;1.70;;
10174;SDS011;18221;38.704;0.152;2023-08-06T03:43:21;3.93;;;1.50;;
10174;SDS011;18221;38.704;0.152;2023-08-06T03:45:49;3.83;;;1.80;;
10174;SDS011;18221;38.704;0.152;2023-08-06T03:48:17;5.03;;;1.77;;
10174;SDS011;18221;38.704;0.152;2023-08-06T03:50:47;7.33;;;1.90;;
10174;SDS011;18221;38.704;0.152;2023-08-06T03:53:15;3.63;;;1.70;;
10174;SDS011;18221;38.704;0.152;2023-08-06T03:55:43;5.40;;;1.70;;
10174;SDS011;18221;38.704;0.152;2023-08-06T03:58:12;5.03;;;1.80;;
10174;SDS011;18221;38.704;0.152;2023-08-06T04:00:40;3.27;;;1.60;;
10174;SDS011;18221;38.704;0.152;2023-08-06T04:03:08;3.77;;;1.53;;
10174;SDS011;18221;38.704;0.152;2023-08-06T04:05:36;3.93;;;1.87;;
10174;SDS011;18221;38.704;0.152;2023-08-06T04:08:06;4.50;;;2.07;;
10174;SDS011;18221;38.704;0.152;2023-08-06T04:10:34;7.33;;;2.17;;
10174;SDS011;18221;38.704;0.152;2023-08-06T04:13:02;3.40;;;1.57;;
10174;SDS011;18221;38.704;0.152;2023-08-06T04:15:33;3.30;;;1.47;;
10174;SDS011;18221;38.704;0.152;2023-08-06T04:18:01;3.73;;;1.70;;
10174;SDS011;18221;38.704;0.152;2023-08-06T04:20:32;5.67;;;1.50;;
10174;SDS011;18221;38.704;0.152;2023-08-06T04:23:05;4.27;;;1.60;;
10174;SDS011;18221;38.704;0.152;2023-08-06T04:25:35;6.30;;;1.90;;
10174;SDS011;18221;38.704;0.152;2023-08-06T04:28:03;3.83;;;1.60;;
10174;SDS011;18221;38.704;0.152;2023-08-06T04:30:31;3.00;;;1.60;;
10174;SDS011;18221;38.704;0.152;2023-08-06T04:32:59;5.60;;;1.70;;
10174;SDS011;18221;38.704;0.152;2023-08-06T04:35:27;3.37;;;1.60;;
10174;SDS011;18221;38.704;0.152;2023-08-06T04:37:56;5.70;;;1.70;;
10174;SDS011;18221;38.704;0.152;2023-08-06T04:40:25;5.70;;;1.77;;
10174;SDS011;18221;38.704;0.152;2023-08-06T04:42:53;2.23;;;1.47;;
10174;SDS011;18221;38.704;0.152;2023-08-06T04:45:21;4.80;;;2.10;;
10174;SDS011;18221;38.704;0.152;2023-08-06T04:47:50;4.13;;;1.80;;
10174;SDS011;18221;38.704;0.152;2023-08-06T04:50:18;5.00;;;1.77;;
10174;SDS011;18221;38.704;0.152;2023-08-06T04:52:46;3.67;;;1.73;;
10174;SDS011;18221;38.704;0.152;2023-08-06T04:55:14;5.40;;;1.80;;
10174;SDS011;18221;38.704;0.152;2023-08-06T04:57:44;6.40;;;1.73;;
10174;SDS011;18221;38.704;0.152;2023-08-06T05:00:12;3.10;;;1.70;;
10174;SDS011;18221;38.704;0.152;2023-08-06T05:02:41;4.97;;;1.80;;
10174;SDS011;18221;38.704;0.152;2023-08-06T05:05:09;2.93;;;1.40;;
10174;SDS011;18221;38.704;0.152;2023-08-06T05:07:37;5.03;;;1.87;;
10174;SDS011;18221;38.704;0.152;2023-08-06T05:10:05;5.40;;;1.77;;
10174;SDS011;18221;38.704;0.152;2023-08-06T05:12:34;4.90;;;1.70;;
10174;SDS011;18221;38.704;0.152;2023-08-06T05:15:04;4.40;;;1.67;;
10174;SDS011;18221;38.704;0.152;2023-08-06T05:17:34;4.83;;;1.80;;
10174;SDS011;18221;38.704;0.152;2023-08-06T05:20:02;4.27;;;1.70;;
10174;SDS011;18221;38.704;0.152;2023-08-06T05:22:31;5.10;;;1.53;;
10174;SDS011;18221;38.704;0.152;2023-08-06T05:24:59;3.33;;;1.50;;
10174;SDS011;18221;38.704;0.152;2023-08-06T05:27:27;4.97;;;1.73;;
10174;SDS011;18221;38.704;0.152;2023-08-06T05:29:55;2.10;;;1.50;;
10174;SDS011;18221;38.704;0.152;2023-08-06T05:32:25;6.10;;;1.90;;
10174;SDS011;18221;38.704;0.152;2023-08-06T05:34:54;2.73;;;1.40;;
10174;SDS011;18221;38.704;0.152;2023-08-06T05:37:22;4.20;;;1.83;;
10174;SDS011;18221;38.704;0.152;2023-08-06T05:39:50;4.57;;;1.70;;
10174;SDS011;18221;38.704;0.152;2023-08-06T05:42:18;2.73;;;1.40;;
10174;SDS011;18221;38.704;0.152;2023-08-06T05:44:47;2.43;;;1.50;;
10174;SDS011;18221;38.704;0.152;2023-08-06T05:47:14;4.83;;;1.63;;
10174;SDS011;18221;38.704;0.152;2023-08-06T05:49:47;2.17;;;1.33;;
10174;SDS011;18221;38.704;0.152;2023-08-06T05:52:16;3.37;;;1.90;;
10174;SDS011;18221;38.704;0.152;2023-08-06T05:54:44;3.00;;;1.50;;
10174;SDS011;18221;38.704;0.152;2023-08-06T05:57:14;3.43;;;1.60;;
10174;SDS011;18221;38.704;0.152;2023-08-06T05:59:43;7.03;;;1.70;;
10174;SDS011;18221;38.704;0.152;2023-08-06T06:02:11;3.93;;;1.60;;
10174;SDS011;18221;38.704;0.152;2023-08-06T06:04:40;2.87;;;1.40;;
10174;SDS011;18221;38.704;0.152;2023-08-06T06:07:10;4.13;;;1.80;;
10174;SDS011;18221;38.704;0.152;2023-08-06T06:09:38;2.70;;;1.53;;
10174;SDS011;18221;38.704;0.152;2023-08-06T06:12:06;2.47;;;1.53;;
10174;SDS011;18221;38.704;0.152;2023-08-06T06:14:35;4.07;;;1.47;;
10174;SDS011;18221;38.704;0.152;2023-08-06T06:17:03;5.43;;;1.73;;
10174;SDS011;18221;38.704;0.152;2023-08-06T06:19:31;5.07;;;1.53;;
10174;SDS011;18221;38.704;0.152;2023-08-06T06:22:00;2.83;;;1.50;;
10174;SDS011;18221;38.704;0.152;2023-08-06T06:24:29;4.93;;;1.80;;
10174;SDS011;18221;38.704;0.152;2023-08-06T06:26:57;3.33;;;1.50;;
10174;SDS011;18221;38.704;0.152;2023-08-06T06:29:26;4.90;;;1.63;;
10174;SDS011;18221;38.704;0.152;2023-08-06T06:31:55;5.40;;;2.00;;
10174;SDS011;18221;38.704;0.152;2023-08-06T06:34:25;3.20;;;2.00;;
10174;SDS011;18221;38.704;0.152;2023-08-06T06:36:53;7.60;;;2.17;;
10174;SDS011;18221;38.704;0.152;2023-08-06T06:39:21;4.87;;;1.60;;
10174;SDS011;18221;38.704;0.152;2023-08-06T06:41:51;3.87;;;1.60;;
10174;SDS011;18221;38.704;0.152;2023-08-06T06:44:20;3.90;;;1.83;;
10174;SDS011;18221;38.704;0.152;2023-08-06T06:46:48;5.47;;;2.00;;
10174;SDS011;18221;38.704;0.152;2023-08-06T06:49:16;6.60;;;1.90;;
10174;SDS011;18221;38.704;0.152;2023-08-06T06:51:44;3.83;;;1.70;;
10174;SDS011;18221;38.704;0.152;2023-08-06T06:54:12;5.72;;;1.85;;
10174;SDS011;18221;38.704;0.152;2023-08-06T06:56:40;3.53;;;1.85;;
10174;SDS011;18221;38.704;0.152;2023-08-06T06:59:12;3.60;;;2.08;;
10174;SDS011;18221;38.704;0.152;2023-08-06T07:01:41;6.87;;;2.00;;
10174;SDS011;18221;38.704;0.152;2023-08-06T07:04:09;4.43;;;1.90;;
10174;SDS011;18221;38.704;0.152;2023-08-06T07:06:37;3.25;;;1.70;;
10174;SDS011;18221;38.704;0.152;2023-08-06T07:09:05;4.75;;;1.75;;
10174;SDS011;18221;38.704;0.152;2023-08-06T07:11:33;2.70;;;1.90;;
10174;SDS011;18221;38.704;0.152;2023-08-06T07:14:01;4.47;;;1.90;;
10174;SDS011;18221;38.704;0.152;2023-08-06T07:16:30;7.10;;;2.10;;
10174;SDS011;18221;38.704;0.152;2023-08-06T07:18:59;5.28;;;1.88;;
10174;SDS011;18221;38.704;0.152;2023-08-06T07:21:27;4.38;;;1.90;;
10174;SDS011;18221;38.704;0.152;2023-08-06T07:23:55;7.22;;;1.90;;
10174;SDS011;18221;38.704;0.152;2023-08-06T07:26:24;4.10;;;1.90;;
10174;SDS011;18221;38.704;0.152;2023-08-06T07:28:53;4.90;;;1.70;;
10174;SDS011;18221;38.704;0.152;2023-08-06T07:31:21;4.55;;;1.60;;
10174;SDS011;18221;38.704;0.152;2023-08-06T07:33:50;4.03;;;1.63;;
10174;SDS011;18221;38.704;0.152;2023-08-06T07:36:18;3.70;;;1.63;;
10174;SDS011;18221;38.704;0.152;2023-08-06T07:38:47;5.70;;;2.05;;
10174;SDS011;18221;38.704;0.152;2023-08-06T07:41:20;4.47;;;2.00;;
10174;SDS011;18221;38.704;0.152;2023-08-06T07:43:49;4.88;;;1.60;;
10174;SDS011;18221;38.704;0.152;2023-08-06T07:46:17;6.35;;;1.80;;
10174;SDS011;18221;38.704;0.152;2023-08-06T07:48:45;5.75;;;2.10;;
10174;SDS011;18221;38.704;0.152;2023-08-06T07:51:15;3.20;;;1.80;;
10174;SDS011;18221;38.704;0.152;2023-08-06T07:53:43;6.32;;;1.92;;
10174;SDS011;18221;38.704;0.152;2023-08-06T07:56:12;3.10;;;1.60;;
10174;SDS011;18221;38.704;0.152;2023-08-06T07:58:40;4.93;;;1.70;;
10174;SDS011;18221;38.704;0.152;2023-08-06T08:01:08;5.22;;;1.75;;
10174;SDS011;18221;38.704;0.152;2023-08-06T08:03:36;3.15;;;1.83;;
10174;SDS011;18221;38.704;0.152;2023-08-06T08:06:04;6.10;;;2.17;;
10174;SDS011;18221;38.704;0.152;2023-08-06T08:08:34;4.13;;;1.60;;
10174;SDS011;18221;38.704;0.152;2023-08-06T08:11:04;2.70;;;1.40;;
10174;SDS011;18221;38.704;0.152;2023-08-06T08:13:35;3.08;;;1.60;;
10174;SDS011;18221;38.704;0.152;2023-08-06T08:16:03;3.35;;;1.70;;
10174;SDS011;18221;38.704;0.152;2023-08-06T08:18:32;4.20;;;1.60;;
10174;SDS011;18221;38.704;0.152;2023-08-06T08:21:00;5.05;;;1.60;;
10174;SDS011;18221;38.704;0.152;2023-08-06T08:23:28;3.63;;;1.70;;
10174;SDS011;18221;38.704;0.152;2023-08-06T08:25:58;3.80;;;1.63;;
10174;SDS011;18221;38.704;0.152;2023-08-06T08:28:27;3.55;;;1.58;;
10174;SDS011;18221;38.704;0.152;2023-08-06T08:30:55;4.35;;;1.35;;
10174;SDS011;18221;38.704;0.152;2023-08-06T08:33:23;3.05;;;1.20;;
10174;SDS011;18221;38.704;0.152;2023-08-06T08:35:51;4.28;;;1.67;;
10174;SDS011;18221;38.704;0.152;2023-08-06T08:38:20;4.65;;;1.60;;
10174;SDS011;18221;38.704;0.152;2023-08-06T08:40:49;3.65;;;1.45;;
10174;SDS011;18221;38.704;0.152;2023-08-06T08:43:22;3.50;;;1.42;;
10174;SDS011;18221;38.704;0.152;2023-08-06T08:45:51;2.55;;;1.15;;
10174;SDS011;18221;38.704;0.152;2023-08-06T08:48:24;4.10;;;1.17;;
10174;SDS011;18221;38.704;0.152;2023-08-06T08:50:53;3.92;;;1.52;;
10174;SDS011;18221;38.704;0.152;2023-08-06T08:53:22;1.88;;;1.17;;
10174;SDS011;18221;38.704;0.152;2023-08-06T08:55:53;5.03;;;1.67;;
10174;SDS011;18221;38.704;0.152;2023-08-06T08:58:24;3.47;;;1.60;;
10174;SDS011;18221;38.704;0.152;2023-08-06T09:00:52;4.03;;;1.65;;
10174;SDS011;18221;38.704;0.152;2023-08-06T09:03:20;5.38;;;1.70;;
10174;SDS011;18221;38.704;0.152;2023-08-06T09:05:51;3.70;;;1.45;;
10174;SDS011;18221;38.704;0.152;2023-08-06T09:11:15;3.42;;;1.55;;
10174;SDS011;18221;38.704;0.152;2023-08-06T09:13:47;2.25;;;1.27;;
10174;SDS011;18221;38.704;0.152;2023-08-06T09:16:16;3.95;;;1.50;;
10174;SDS011;18221;38.704;0.152;2023-08-06T09:18:44;2.67;;;1.15;;
10174;SDS011;18221;38.704;0.152;2023-08-06T09:21:13;4.22;;;1.33;;
10174;SDS011;18221;38.704;0.152;2023-08-06T09:23:42;2.50;;;1.05;;
10174;SDS011;18221;38.704;0.152;2023-08-06T09:26:13;2.00;;;1.00;;
10174;SDS011;18221;38.704;0.152;2023-08-06T09:28:41;5.30;;;1.80;;
10174;SDS011;18221;38.704;0.152;2023-08-06T09:31:11;2.42;;;1.15;;
10174;SDS011;18221;38.704;0.152;2023-08-06T09:33:39;2.45;;;1.00;;
10174;SDS011;18221;38.704;0.152;2023-08-06T09:36:09;5.45;;;1.15;;
10174;SDS011;18221;38.704;0.152;2023-08-06T09:38:38;3.70;;;1.40;;
10174;SDS011;18221;38.704;0.152;2023-08-06T09:41:07;4.38;;;1.25;;
10174;SDS011;18221;38.704;0.152;2023-08-06T09:43:41;1.92;;;0.98;;
10174;SDS011;18221;38.704;0.152;2023-08-06T09:46:14;2.28;;;1.10;;
10174;SDS011;18221;38.704;0.152;2023-08-06T09:48:44;3.03;;;1.23;;
10174;SDS011;18221;38.704;0.152;2023-08-06T09:51:13;2.40;;;1.00;;
10174;SDS011;18221;38.704;0.152;2023-08-06T09:53:41;1.85;;;1.05;;
10174;SDS011;18221;38.704;0.152;2023-08-06T09:56:10;2.20;;;1.17;;
10174;SDS011;18221;38.704;0.152;2023-08-06T09:58:42;2.50;;;1.25;;
10174;SDS011;18221;38.704;0.152;2023-08-06T10:01:14;2.65;;;1.00;;
10174;SDS011;18221;38.704;0.152;2023-08-06T10:03:44;3.47;;;1.05;;
10174;SDS011;18221;38.704;0.152;2023-08-06T10:06:14;1.23;;;0.98;;
10174;SDS011;18221;38.704;0.152;2023-08-06T10:08:42;1.60;;;1.00;;
10174;SDS011;18221;38.704;0.152;2023-08-06T10:11:16;2.50;;;1.00;;
10174;SDS011;18221;38.704;0.152;2023-08-06T10:13:48;1.95;;;1.20;;
10174;SDS011;18221;38.704;0.152;2023-08-06T10:16:21;1.38;;;0.80;;
10174;SDS011;18221;38.704;0.152;2023-08-06T10:18:51;1.60;;;0.90;;
10174;SDS011;18221;38.704;0.152;2023-08-06T10:21:23;2.80;;;1.20;;
10174;SDS011;18221;38.704;0.152;2023-08-06T10:23:53;4.47;;;1.20;;
10174;SDS011;18221;38.704;0.152;2023-08-06T10:26:24;3.45;;;1.30;;
10174;SDS011;18221;38.704;0.152;2023-08-06T10:28:54;1.88;;;1.05;;
10174;SDS011;18221;38.704;0.152;2023-08-06T10:34:26;2.50;;;1.00;;
10174;SDS011;18221;38.704;0.152;2023-08-06T10:37:22;4.25;;;1.00;;
10174;SDS011;18221;38.704;0.152;2023-08-06T10:40:00;2.63;;;1.20;;
10174;SDS011;18221;38.704;0.152;2023-08-06T10:42:30;2.90;;;0.95;;
10174;SDS011;18221;38.704;0.152;2023-08-06T10:47:44;1.60;;;1.02;;
10174;SDS011;18221;38.704;0.152;2023-08-06T10:50:13;5.07;;;1.10;;
10174;SDS011;18221;38.704;0.152;2023-08-06T10:52:43;3.90;;;1.20;;
10174;SDS011;18221;38.704;0.152;2023-08-06T10:55:12;4.15;;;1.40;;
10174;SDS011;18221;38.704;0.152;2023-08-06T10:57:40;3.45;;;1.20;;
10174;SDS011;18221;38.704;0.152;2023-08-06T11:00:08;3.10;;;1.38;;
10174;SDS011;18221;38.704;0.152;2023-08-06T11:02:39;4.28;;;1.50;;
10174;SDS011;18221;38.704;0.152;2023-08-06T11:05:10;5.40;;;1.48;;
10174;SDS011;18221;38.704;0.152;2023-08-06T11:07:39;5.35;;;1.45;;
10174;SDS011;18221;38.704;0.152;2023-08-06T11:10:08;4.35;;;1.40;;
10174;SDS011;18221;38.704;0.152;2023-08-06T11:12:37;6.22;;;1.70;;
10174;SDS011;18221;38.704;0.152;2023-08-06T11:15:06;4.45;;;1.30;;
10174;SDS011;18221;38.704;0.152;2023-08-06T11:17:35;5.00;;;1.60;;
10174;SDS011;18221;38.704;0.152;2023-08-06T11:20:04;6.18;;;1.50;;
10174;SDS011;18221;38.704;0.152;2023-08-06T11:22:35;5.30;;;1.55;;
10174;SDS011;18221;38.704;0.152;2023-08-06T11:25:05;7.80;;;2.53;;
10174;SDS011;18221;38.704;0.152;2023-08-06T11:27:34;4.47;;;1.65;;
10174;SDS011;18221;38.704;0.152;2023-08-06T11:30:02;6.15;;;1.73;;
10174;SDS011;18221;38.704;0.152;2023-08-06T11:32:32;5.15;;;1.60;;
10174;SDS011;18221;38.704;0.152;2023-08-06T11:35:09;4.60;;;1.60;;
10174;SDS011;18221;38.704;0.152;2023-08-06T11:37:39;5.13;;;1.75;;
10174;SDS011;18221;38.704;0.152;2023-08-06T11:40:13;6.38;;;2.00;;
10174;SDS011;18221;38.704;0.152;2023-08-06T11:42:42;8.88;;;2.00;;
10174;SDS011;18221;38.704;0.152;2023-08-06T11:45:12;5.65;;;1.70;;
10174;SDS011;18221;38.704;0.152;2023-08-06T11:47:49;8.07;;;2.03;;
10174;SDS011;18221;38.704;0.152;2023-08-06T11:50:22;7.47;;;1.92;;
10174;SDS011;18221;38.704;0.152;2023-08-06T11:52:54;3.90;;;1.80;;
10174;SDS011;18221;38.704;0.152;2023-08-06T11:55:25;6.75;;;2.50;;
10174;SDS011;18221;38.704;0.152;2023-08-06T11:57:55;8.75;;;2.00;;
10174;SDS011;18221;38.704;0.152;2023-08-06T12:00:24;5.47;;;1.83;;
10174;SDS011;18221;38.704;0.152;2023-08-06T12:02:53;5.47;;;2.15;;
10174;SDS011;18221;38.704;0.152;2023-08-06T12:05:23;9.90;;;2.10;;
10174;SDS011;18221;38.704;0.152;2023-08-06T12:08:00;5.72;;;1.80;;
10174;SDS011;18221;38.704;0.152;2023-08-06T12:10:30;5.13;;;1.80;;
10174;SDS011;18221;38.704;0.152;2023-08-06T12:12:59;7.07;;;1.98;;
10174;SDS011;18221;38.704;0.152;2023-08-06T12:15:29;4.55;;;1.70;;
10174;SDS011;18221;38.704;0.152;2023-08-06T12:17:57;3.95;;;1.75;;
10174;SDS011;18221;38.704;0.152;2023-08-06T12:20:25;5.18;;;1.58;;
10174;SDS011;18221;38.704;0.152;2023-08-06T12:22:54;8.15;;;2.03;;
10174;SDS011;18221;38.704;0.152;2023-08-06T12:25:24;11.20;;;2.28;;
10174;SDS011;18221;38.704;0.152;2023-08-06T12:27:52;5.80;;;1.80;;
10174;SDS011;18221;38.704;0.152;2023-08-06T12:30:20;4.32;;;1.90;;
10174;SDS011;18221;38.704;0.152;2023-08-06T12:32:48;5.55;;;1.92;;
10174;SDS011;18221;38.704;0.152;2023-08-06T12:35:17;8.88;;;2.00;;
10174;SDS011;18221;38.704;0.152;2023-08-06T12:37:46;4.97;;;1.85;;
10174;SDS011;18221;38.704;0.152;2023-08-06T12:40:14;6.57;;;1.67;;
10174;SDS011;18221;38.704;0.152;2023-08-06T12:42:43;8.27;;;1.95;;
10174;SDS011;18221;38.704;0.152;2023-08-06T12:45:11;4.88;;;2.13;;
10174;SDS011;18221;38.704;0.152;2023-08-06T12:47:39;6.30;;;1.95;;
10174;SDS011;18221;38.704;0.152;2023-08-06T12:50:08;7.55;;;1.90;;
10174;SDS011;18221;38.704;0.152;2023-08-06T12:52:36;6.55;;;1.95;;
10174;SDS011;18221;38.704;0.152;2023-08-06T12:55:04;7.00;;;2.00;;
10174;SDS011;18221;38.704;0.152;2023-08-06T12:57:33;8.38;;;2.17;;
10174;SDS011;18221;38.704;0.152;2023-08-06T13:00:03;6.47;;;2.10;;
10174;SDS011;18221;38.704;0.152;2023-08-06T13:02:32;8.30;;;2.60;;
10174;SDS011;18221;38.704;0.152;2023-08-06T13:05:00;5.20;;;1.92;;
10174;SDS011;18221;38.704;0.152;2023-08-06T13:07:30;6.90;;;1.95;;
10174;SDS011;18221;38.704;0.152;2023-08-06T13:09:58;5.07;;;2.03;;
10174;SDS011;18221;38.704;0.152;2023-08-06T13:12:26;7.38;;;1.92;;
10174;SDS011;18221;38.704;0.152;2023-08-06T13:14:55;5.93;;;2.00;;
10174;SDS011;18221;38.704;0.152;2023-08-06T13:17:26;9.50;;;2.45;;
10174;SDS011;18221;38.704;0.152;2023-08-06T13:19:54;8.18;;;2.20;;
10174;SDS011;18221;38.704;0.152;2023-08-06T13:22:23;5.80;;;2.10;;
10174;SDS011;18221;38.704;0.152;2023-08-06T13:24:51;5.85;;;2.20;;
10174;SDS011;18221;38.704;0.152;2023-08-06T13:27:19;6.18;;;1.88;;
10174;SDS011;18221;38.704;0.152;2023-08-06T13:29:47;8.38;;;1.88;;
10174;SDS011;18221;38.704;0.152;2023-08-06T13:32:15;7.28;;;2.17;;
10174;SDS011;18221;38.704;0.152;2023-08-06T13:34:45;6.00;;;2.08;;
10174;SDS011;18221;38.704;0.152;2023-08-06T13:37:13;6.50;;;1.80;;
10174;SDS011;18221;38.704;0.152;2023-08-06T13:39:41;6.57;;;1.98;;
10174;SDS011;18221;38.704;0.152;2023-08-06T13:42:09;6.20;;;2.17;;
10174;SDS011;18221;38.704;0.152;2023-08-06T13:44:37;5.28;;;1.88;;
10174;SDS011;18221;38.704;0.152;2023-08-06T13:47:06;6.13;;;2.33;;
10174;SDS011;18221;38.704;0.152;2023-08-06T13:49:34;4.85;;;1.80;;
10174;SDS011;18221;38.704;0.152;2023-08-06T13:52:04;7.80;;;2.20;;
10174;SDS011;18221;38.704;0.152;2023-08-06T13:54:32;6.07;;;2.08;;
10174;SDS011;18221;38.704;0.152;2023-08-06T13:57:00;8.10;;;2.38;;
10174;SDS011;18221;38.704;0.152;2023-08-06T13:59:29;7.85;;;2.22;;
10174;SDS011;18221;38.704;0.152;2023-08-06T14:01:57;7.32;;;1.83;;
10174;SDS011;18221;38.704;0.152;2023-08-06T14:04:26;7.57;;;2.13;;
10174;SDS011;18221;38.704;0.152;2023-08-06T14:06:54;5.70;;;2.10;;
10174;SDS011;18221;38.704;0.152;2023-08-06T14:09:24;8.55;;;2.15;;
10174;SDS011;18221;38.704;0.152;2023-08-06T14:11:52;7.57;;;2.22;;
10174;SDS011;18221;38.704;0.152;2023-08-06T14:14:20;6.25;;;1.83;;
10174;SDS011;18221;38.704;0.152;2023-08-06T14:16:54;5.75;;;2.13;;
10174;SDS011;18221;38.704;0.152;2023-08-06T14:19:22;7.05;;;2.15;;
10174;SDS011;18221;38.704;0.152;2023-08-06T14:21:50;8.75;;;2.17;;
10174;SDS011;18221;38.704;0.152;2023-08-06T14:24:18;8.02;;;2.13;;
10174;SDS011;18221;38.704;0.152;2023-08-06T14:26:48;7.22;;;1.98;;
10174;SDS011;18221;38.704;0.152;2023-08-06T14:29:17;5.75;;;2.15;;
10174;SDS011;18221;38.704;0.152;2023-08-06T14:31:45;7.25;;;2.60;;
10174;SDS011;18221;38.704;0.152;2023-08-06T14:34:13;7.68;;;2.38;;
10174;SDS011;18221;38.704;0.152;2023-08-06T14:36:41;6.93;;;1.85;;
10174;SDS011;18221;38.704;0.152;2023-08-06T14:39:09;10.38;;;2.40;;
10174;SDS011;18221;38.704;0.152;2023-08-06T14:41:39;8.27;;;2.22;;
10174;SDS011;18221;38.704;0.152;2023-08-06T14:44:09;7.57;;;2.10;;
10174;SDS011;18221;38.704;0.152;2023-08-06T14:46:37;8.85;;;2.30;;
10174;SDS011;18221;38.704;0.152;2023-08-06T14:49:05;6.80;;;2.22;;
10174;SDS011;18221;38.704;0.152;2023-08-06T14:51:33;9.23;;;2.17;;
10174;SDS011;18221;38.704;0.152;2023-08-06T14:54:01;8.82;;;2.40;;
10174;SDS011;18221;38.704;0.152;2023-08-06T14:56:29;4.53;;;2.33;;
10174;SDS011;18221;38.704;0.152;2023-08-06T14:58:58;7.32;;;2.20;;
10174;SDS011;18221;38.704;0.152;2023-08-06T15:01:27;6.70;;;2.15;;
10174;SDS011;18221;38.704;0.152;2023-08-06T15:03:56;7.40;;;2.40;;
10174;SDS011;18221;38.704;0.152;2023-08-06T15:06:24;7.28;;;2.50;;
10174;SDS011;18221;38.704;0.152;2023-08-06T15:08:52;5.47;;;1.98;;
10174;SDS011;18221;38.704;0.152;2023-08-06T15:11:23;7.25;;;2.50;;
10174;SDS011;18221;38.704;0.152;2023-08-06T15:13:51;9.15;;;2.03;;
10174;SDS011;18221;38.704;0.152;2023-08-06T15:16:20;8.23;;;2.20;;
10174;SDS011;18221;38.704;0.152;2023-08-06T15:18:49;7.38;;;2.63;;
10174;SDS011;18221;38.704;0.152;2023-08-06T15:21:17;6.13;;;2.40;;